El Paso, TX (88582)

3:43 AM MDT on August 25, 2016 (GMT -0600)
Shock | | Change Station

Elev 3924 ft 31.76 °N, 106.33 °W | Updated 6 minutes ago

Clear
Clear
69.8 °F
Feels Like 69.8 °F
N
3.2
Wind Variable Wind from SSW

Today
High -- | Low -- °F
--% Chance of Precip.
Yesterday
High -- | Low -- °F
Precip. -- in
Pressure 29.86 in
Visibility 10.0 miles
Clouds Clear
Dew Point 54 °F
Humidity 57%
Rainfall 0.00 in
Snow Depth Not available.
6:36 AM 7:37 PM
Waning Gibbous, 47% visible
METAR KELP 250851Z 36008KT 10SM CLR 23/12 A3008 RMK AO2 SLP110 T02280122 58003
Pressure 29.86 in
Visibility 10.0 miles
Clouds Clear
Dew Point 54 °F
Humidity 57%
Rainfall 0.00 in
Snow Depth Not available.
6:36 AM 7:37 PM
Waning Gibbous, 47% visible
METAR KELP 250851Z 36008KT 10SM CLR 23/12 A3008 RMK AO2 SLP110 T02280122 58003

10-Day Weather Forecast

Almanac

Astronomy

Aug. 25, 2016 Rise Set
Actual Time
Civil Twilight
Nautical Twilight
Astronomical Twilight
Moon
Length of Visible Light
Length of Day
Tomorrow will be .
, % of the Moon is Illuminated

Today's Extremes

State Highs State Lows

Community

WunderPhotos

Upload Photos

1,934,818 photos uploaded!

WunderBlog® & News

Nearby

Air Quality

  Air Quality AQ Index Pollutant
Not available.

Snow Depth

Station Depth Elevation

Earthquake Activity

City Distance Mag. Time & Date
Minimum magnitude displayed is 2.5.

Coastal Water Temperatures

Place Temperature

Stations

Nearby Weather Stations

Station Location Temp. Windchill Dew Point Humidity Wind Precip. Elev Updated Type
                   

Watches & Warnings

There are currently no watches in effect.